Terminal Aerodrome Forecast
Issued by NWS

Home | Current Version | Previous Version | Text Only | Print | Product List | Glossary On
Versions: 1 2 3 4 5 6 7 8 9 10 11 12
758
FTUS41 KBTV 071736
TAFMPV
TAF
KMPV 071736Z 0718/0818 32005KT P6SM VCSH SCT028 OVC035
      TEMPO 0718/0722 -SHSN BKN028
     FM072200 VRB03KT P6SM OVC028
     FM081300 11004KT P6SM OVC035=

USA.gov is the U.S. government's official web portal to all federal, state and local government web resources and services.